createdAt,value
2019-02-18T00:00:52.427Z,98.50
2019-02-18T00:03:21.344Z,98.40
2019-02-18T00:05:50.689Z,98.40
2019-02-18T00:08:19.968Z,98.50
2019-02-18T00:10:52.008Z,98.70
2019-02-18T00:13:21.309Z,99.10
2019-02-18T00:15:50.372Z,99.20
2019-02-18T00:18:40.264Z,99.20
2019-02-18T00:21:09.161Z,99.10
2019-02-18T00:23:38.100Z,99.20
2019-02-18T00:26:07.110Z,98.80
2019-02-18T00:28:37.058Z,98.70
2019-02-18T00:31:06.227Z,98.60
2019-02-18T00:33:35.411Z,98.50
2019-02-18T00:36:04.365Z,98.60
2019-02-18T00:38:33.288Z,98.40
2019-02-18T00:41:02.126Z,98.30
2019-02-18T00:43:32.312Z,98.30
2019-02-18T00:46:01.508Z,98.40
2019-02-18T00:48:30.372Z,98.20
2019-02-18T00:50:59.623Z,98.30
2019-02-18T00:53:28.556Z,98.60
2019-02-18T00:55:57.423Z,98.40
2019-02-18T00:58:26.395Z,98.60
2019-02-18T01:00:55.432Z,98.20
2019-02-18T01:03:25.093Z,98.40
2019-02-18T01:05:54.232Z,98.20
2019-02-18T01:08:23.570Z,98.20
2019-02-18T01:10:52.560Z,98.30
2019-02-18T01:13:21.532Z,98.20
2019-02-18T01:15:50.524Z,98.40
2019-02-18T01:18:19.544Z,98.20
2019-02-18T01:20:49.186Z,98.20
2019-02-18T01:23:18.132Z,98.30
2019-02-18T01:25:47.101Z,99.00
2019-02-18T01:28:16.068Z,99.20
2019-02-18T01:30:44.996Z,98.90
2019-02-18T01:33:13.832Z,98.90
2019-02-18T01:35:42.808Z,98.80
2019-02-18T01:38:11.656Z,98.80
2019-02-18T01:40:40.597Z,98.70
2019-02-18T01:43:09.634Z,98.60
2019-02-18T01:45:39.069Z,98.70
2019-02-18T01:48:07.972Z,98.90
2019-02-18T01:50:36.935Z,99.10
2019-02-18T01:53:05.857Z,99.10
2019-02-18T01:55:34.712Z,99.00
2019-02-18T01:58:03.673Z,98.90
2019-02-18T02:00:32.591Z,99.00
2019-02-18T02:03:01.528Z,99.20
2019-02-18T02:05:30.500Z,99.20
2019-02-18T02:07:59.832Z,99.60
2019-02-18T02:10:28.794Z,99.20
2019-02-18T02:13:25.919Z,99.20
2019-02-18T02:15:54.934Z,99.10
2019-02-18T02:18:24.203Z,99.10
2019-02-18T02:20:53.244Z,99.20
2019-02-18T02:23:22.180Z,99.20
2019-02-18T02:25:51.233Z,99.30
2019-02-18T02:28:20.124Z,99.50
2019-02-18T02:30:48.994Z,99.60
2019-02-18T02:33:17.975Z,99.50
2019-02-18T02:35:47.000Z,99.40
2019-02-18T02:38:16.379Z,99.30
2019-02-18T02:41:04.770Z,99.30
2019-02-18T02:43:33.713Z,99.40
2019-02-18T02:46:02.652Z,99.20
2019-02-18T02:48:31.664Z,99.10
2019-02-18T02:51:00.821Z,99.00
2019-02-18T02:53:29.745Z,99.30
2019-02-18T02:55:58.724Z,99.50
2019-02-18T02:58:27.572Z,99.50
2019-02-18T03:00:56.540Z,99.50
2019-02-18T03:03:25.543Z,99.30
2019-02-18T03:05:54.469Z,99.10
2019-02-18T03:08:23.556Z,99.20
2019-02-18T03:10:52.857Z,99.20
2019-02-18T03:13:22.558Z,99.30
2019-02-18T03:15:52.073Z,99.30
2019-02-18T03:18:20.990Z,99.40
2019-02-18T03:20:49.940Z,99.20
2019-02-18T03:23:19.176Z,99.20
2019-02-18T03:25:50.541Z,99.20
2019-02-18T03:29:24.929Z,99.30
2019-02-18T03:31:53.867Z,99.30
2019-02-18T03:34:26.956Z,99.20
2019-02-18T03:36:55.846Z,99.40
2019-02-18T03:39:27.946Z,99.40
2019-02-18T03:41:57.186Z,99.20
2019-02-18T03:44:26.485Z,99.30
2019-02-18T03:46:55.448Z,99.40
2019-02-18T03:49:25.056Z,99.30
2019-02-18T03:51:54.183Z,99.10
2019-02-18T03:54:23.646Z,98.90
2019-02-18T03:56:52.804Z,99.00
2019-02-18T03:59:21.938Z,99.10
2019-02-18T04:01:51.274Z,99.00
2019-02-18T04:04:20.469Z,99.30
2019-02-18T04:06:50.375Z,99.00
2019-02-18T04:09:19.592Z,99.00
2019-02-18T04:11:48.532Z,99.10
2019-02-18T04:14:17.529Z,99.30
2019-02-18T04:16:46.563Z,99.50
2019-02-18T04:19:15.601Z,99.40
2019-02-18T04:21:44.821Z,99.30
2019-02-18T04:24:13.719Z,99.20
2019-02-18T04:26:43.057Z,99.10
2019-02-18T04:29:12.080Z,99.20
2019-02-18T04:31:40.929Z,99.50
2019-02-18T04:34:09.923Z,99.30
2019-02-18T04:36:39.052Z,99.80
2019-02-18T04:39:08.031Z,99.90
2019-02-18T04:41:36.896Z,99.90
2019-02-18T04:44:06.252Z,99.70
2019-02-18T04:46:35.141Z,99.80
2019-02-18T04:49:04.130Z,99.30
2019-02-18T04:51:34.033Z,99.30
2019-02-18T04:54:02.913Z,99.10
2019-02-18T04:56:32.451Z,99.10
2019-02-18T04:59:01.429Z,99.30
2019-02-18T05:01:30.678Z,99.10
2019-02-18T05:03:59.622Z,99.00
2019-02-18T05:06:28.537Z,98.90
2019-02-18T05:09:05.071Z,99.00
2019-02-18T05:11:28.491Z,99.10
2019-02-18T05:13:57.398Z,99.20
2019-02-18T05:16:26.429Z,99.30
2019-02-18T05:18:55.379Z,99.30
2019-02-18T05:21:24.661Z,99.40
2019-02-18T05:23:53.702Z,99.50
2019-02-18T05:26:22.725Z,99.50
2019-02-18T05:28:51.694Z,99.40
2019-02-18T05:31:20.621Z,99.40
2019-02-18T05:33:49.629Z,99.50
2019-02-18T05:36:18.696Z,99.50
2019-02-18T05:38:47.587Z,99.50
2019-02-18T05:41:16.559Z,99.50
2019-02-18T05:43:45.973Z,99.40
2019-02-18T05:46:15.021Z,99.40
2019-02-18T05:48:44.202Z,99.50
2019-02-18T05:51:13.484Z,99.50
2019-02-18T05:53:42.487Z,99.60
2019-02-18T05:56:11.455Z,99.70
2019-02-18T05:58:40.534Z,99.90
2019-02-18T06:01:09.610Z,99.90
2019-02-18T06:03:39.105Z,99.70
2019-02-18T06:06:08.116Z,99.70
2019-02-18T06:08:37.786Z,99.80
2019-02-18T06:11:06.665Z,99.90
2019-02-18T06:13:36.073Z,99.90
2019-02-18T06:16:05.181Z,99.90
2019-02-18T06:18:34.216Z,99.90
2019-02-18T06:21:03.162Z,99.90
2019-02-18T06:23:32.009Z,99.90
2019-02-18T06:26:00.987Z,99.90
2019-02-18T06:28:29.952Z,99.90
2019-02-18T06:30:58.881Z,99.90
2019-02-18T06:33:28.476Z,99.90
2019-02-18T06:35:57.904Z,99.90
2019-02-18T06:38:26.842Z,99.90
2019-02-18T06:40:55.885Z,99.90
2019-02-18T06:43:24.822Z,99.90
2019-02-18T06:46:08.956Z,99.90
2019-02-18T06:48:43.019Z,99.90
2019-02-18T06:51:11.972Z,99.90
2019-02-18T06:53:41.200Z,99.90
2019-02-18T06:56:10.130Z,99.90
2019-02-18T06:58:48.912Z,99.90
2019-02-18T07:01:43.049Z,99.90
2019-02-18T07:04:22.954Z,99.90
2019-02-18T07:07:23.076Z,99.90
2019-02-18T07:10:00.059Z,99.90
2019-02-18T07:12:31.681Z,99.90
2019-02-18T07:15:00.540Z,99.90
2019-02-18T07:17:29.491Z,99.90
2019-02-18T07:19:58.816Z,99.90
2019-02-18T07:22:27.805Z,99.60
2019-02-18T07:24:56.672Z,99.20
2019-02-18T07:27:25.633Z,98.80
2019-02-18T07:29:54.773Z,98.40
2019-02-18T07:32:23.756Z,97.80
2019-02-18T07:34:52.735Z,98.00
2019-02-18T07:37:21.695Z,96.50
2019-02-18T07:39:59.070Z,96.50
2019-02-18T07:42:21.179Z,96.50
2019-02-18T07:44:50.672Z,96.00
2019-02-18T07:47:19.553Z,96.80
2019-02-18T07:49:48.452Z,95.40
2019-02-18T07:52:17.336Z,92.40
2019-02-18T07:54:46.376Z,91.60
2019-02-18T07:57:15.317Z,91.20
2019-02-18T07:59:44.650Z,91.20
2019-02-18T08:02:13.586Z,90.90
2019-02-18T08:04:42.537Z,90.10
2019-02-18T08:07:11.510Z,86.40
2019-02-18T08:09:40.398Z,85.40
2019-02-18T08:12:09.340Z,80.70
2019-02-18T08:14:38.215Z,77.30
2019-02-18T08:17:07.175Z,81.50
2019-02-18T08:19:36.440Z,78.90
2019-02-18T08:22:05.481Z,79.20
2019-02-18T08:24:34.732Z,79.10
2019-02-18T08:27:03.763Z,76.20
2019-02-18T08:29:32.763Z,73.70
2019-02-18T08:32:01.728Z,67.50
2019-02-18T08:34:30.646Z,67.00
2019-02-18T08:36:59.537Z,61.90
2019-02-18T08:39:28.908Z,61.90
2019-02-18T08:41:58.016Z,59.30
2019-02-18T08:44:27.279Z,60.20
2019-02-18T08:46:56.224Z,60.90
2019-02-18T08:49:25.096Z,59.60
2019-02-18T08:51:54.028Z,57.80
2019-02-18T08:54:22.928Z,58.30
2019-02-18T08:56:51.875Z,57.40
2019-02-18T08:59:20.851Z,57.90
2019-02-18T09:01:49.726Z,56.70
2019-02-18T09:04:18.739Z,55.30
2019-02-18T09:06:47.594Z,54.80
2019-02-18T09:09:16.475Z,54.40
2019-02-18T09:11:45.396Z,53.90
2019-02-18T09:14:14.279Z,53.90
2019-02-18T09:16:43.202Z,51.50
2019-02-18T09:19:12.114Z,50.10
2019-02-18T09:21:41.129Z,48.70
2019-02-18T09:24:31.914Z,47.20
2019-02-18T09:27:01.028Z,47.10
2019-02-18T09:29:29.979Z,45.90
2019-02-18T09:31:58.933Z,44.80
2019-02-18T09:34:27.883Z,44.70
2019-02-18T09:36:56.904Z,44.00
2019-02-18T09:39:31.238Z,42.90
2019-02-18T09:41:56.769Z,42.80
2019-02-18T09:44:25.650Z,41.70
2019-02-18T09:46:55.023Z,41.70
2019-02-18T09:49:24.352Z,41.10
2019-02-18T09:51:53.221Z,40.80
2019-02-18T09:54:22.142Z,41.70
2019-02-18T09:56:51.084Z,41.40
2019-02-18T09:59:20.045Z,40.10
2019-02-18T10:01:48.884Z,40.40
2019-02-18T10:04:17.843Z,40.00
2019-02-18T10:06:46.851Z,39.50
2019-02-18T10:09:15.772Z,39.80
2019-02-18T10:11:44.660Z,37.30
2019-02-18T10:14:14.308Z,37.30
2019-02-18T10:16:43.321Z,37.40
2019-02-18T10:19:12.248Z,37.80
2019-02-18T10:21:41.198Z,36.70
2019-02-18T10:24:10.046Z,36.40
2019-02-18T10:26:39.060Z,37.40
2019-02-18T10:29:07.986Z,40.30
2019-02-18T10:31:36.833Z,40.10
2019-02-18T10:34:05.795Z,41.20
2019-02-18T10:36:34.793Z,35.10
2019-02-18T10:39:04.988Z,40.40
2019-02-18T10:41:34.028Z,37.90
2019-02-18T10:44:02.953Z,37.80
2019-02-18T10:46:31.944Z,37.50
2019-02-18T10:49:00.873Z,38.20
2019-02-18T10:51:29.796Z,36.10
2019-02-18T10:53:59.000Z,35.80
2019-02-18T10:56:28.388Z,37.70
2019-02-18T10:58:57.300Z,37.70
2019-02-18T11:01:26.342Z,34.60
2019-02-18T11:03:55.256Z,36.70
2019-02-18T11:06:24.255Z,34.40
2019-02-18T11:08:53.744Z,36.90
2019-02-18T11:11:22.772Z,37.50
2019-02-18T11:13:51.626Z,36.90
2019-02-18T11:16:20.537Z,36.30
2019-02-18T11:18:49.506Z,34.70
2019-02-18T11:21:18.434Z,34.70
2019-02-18T11:23:47.384Z,32.00
2019-02-18T11:26:16.397Z,33.30
2019-02-18T11:28:45.588Z,32.90
2019-02-18T11:31:14.477Z,31.20
2019-02-18T11:33:43.796Z,32.80
2019-02-18T11:36:12.820Z,30.00
2019-02-18T11:38:41.673Z,30.00
2019-02-18T11:41:10.680Z,30.80
2019-02-18T11:43:39.576Z,32.40
2019-02-18T11:46:08.524Z,31.00
2019-02-18T11:48:37.784Z,30.40
2019-02-18T11:51:07.105Z,29.20
2019-02-18T11:53:36.007Z,29.50
2019-02-18T11:56:05.082Z,29.50
2019-02-18T11:58:34.000Z,29.70
2019-02-18T12:01:03.004Z,30.00
2019-02-18T12:03:31.994Z,30.00
2019-02-18T12:06:00.985Z,33.80
2019-02-18T12:08:29.852Z,34.90
2019-02-18T12:10:58.856Z,35.40
2019-02-18T12:13:27.844Z,34.00
2019-02-18T12:15:56.788Z,34.30
2019-02-18T12:18:26.006Z,32.50
2019-02-18T12:20:54.960Z,31.90
2019-02-18T12:23:23.835Z,31.30
2019-02-18T12:25:53.184Z,30.40
2019-02-18T12:28:22.116Z,28.90
2019-02-18T12:30:51.189Z,28.20
2019-02-18T12:33:20.206Z,28.50
2019-02-18T12:35:49.135Z,27.80
2019-02-18T12:38:18.356Z,27.80
2019-02-18T12:40:47.294Z,26.10
2019-02-18T12:43:16.292Z,26.10
2019-02-18T12:45:45.235Z,26.80
2019-02-18T12:48:14.169Z,26.70
2019-02-18T12:50:43.539Z,27.60
2019-02-18T12:53:12.384Z,28.30
2019-02-18T12:55:41.641Z,29.40
2019-02-18T12:58:10.661Z,30.30
2019-02-18T13:00:39.662Z,29.10
2019-02-18T13:03:08.711Z,28.20
2019-02-18T13:05:37.726Z,27.10
2019-02-18T13:08:07.118Z,25.70
2019-02-18T13:10:36.224Z,26.70
2019-02-18T13:13:05.147Z,26.60
2019-02-18T13:15:34.161Z,27.70
2019-02-18T13:20:32.535Z,24.80
2019-02-18T13:23:01.380Z,26.70
2019-02-18T13:25:30.636Z,24.40
2019-02-18T13:27:59.559Z,23.70
2019-02-18T13:30:28.409Z,24.80
2019-02-18T13:32:57.284Z,24.30
2019-02-18T13:35:26.157Z,23.00
2019-02-18T13:37:55.088Z,22.60
2019-02-18T13:40:24.422Z,22.10
2019-02-18T13:42:53.324Z,22.40
2019-02-18T13:45:22.392Z,23.10
2019-02-18T13:47:51.396Z,21.40
2019-02-18T13:50:20.712Z,22.90
2019-02-18T13:52:50.063Z,21.90
2019-02-18T13:55:19.116Z,23.40
2019-02-18T13:57:48.149Z,23.60
2019-02-18T14:00:19.037Z,24.40
2019-02-18T14:02:48.719Z,24.40
2019-02-18T14:05:18.503Z,23.00
2019-02-18T14:07:47.735Z,22.50
2019-02-18T14:10:17.157Z,22.70
2019-02-18T14:12:46.155Z,23.60
2019-02-18T14:15:15.782Z,23.70
2019-02-18T14:17:44.813Z,25.00
2019-02-18T14:20:14.235Z,21.80
2019-02-18T14:22:43.327Z,23.20
2019-02-18T14:25:13.848Z,20.30
2019-02-18T14:27:42.947Z,20.80
2019-02-18T14:30:13.019Z,20.40
2019-02-18T14:32:42.059Z,19.80
2019-02-18T14:35:11.361Z,19.40
2019-02-18T14:37:40.665Z,18.80
2019-02-18T14:40:12.427Z,20.60
2019-02-18T14:42:41.435Z,18.90
2019-02-18T14:45:10.743Z,20.00
2019-02-18T14:47:39.680Z,20.10
2019-02-18T14:50:08.705Z,20.60
2019-02-18T14:52:37.868Z,22.00
2019-02-18T14:55:07.490Z,21.80
2019-02-18T14:57:36.513Z,20.50
2019-02-18T15:00:13.978Z,21.70
2019-02-18T15:02:43.019Z,21.50
2019-02-18T15:05:12.045Z,22.60
2019-02-18T15:07:41.828Z,20.30
2019-02-18T15:10:11.108Z,21.00
2019-02-18T15:12:40.037Z,21.10
2019-02-18T15:15:09.076Z,19.80
2019-02-18T15:17:38.018Z,20.70
2019-02-18T15:20:07.040Z,20.00
2019-02-18T15:22:36.607Z,20.10
2019-02-18T15:25:05.731Z,19.60
2019-02-18T15:27:34.711Z,19.40
2019-02-18T15:30:06.773Z,20.30
2019-02-18T15:32:35.812Z,22.60
2019-02-18T15:35:04.843Z,21.30
2019-02-18T15:37:34.347Z,21.20
2019-02-18T15:40:03.941Z,21.50
2019-02-18T15:42:41.564Z,22.50
2019-02-18T15:45:03.671Z,22.30
2019-02-18T15:47:32.617Z,20.90
2019-02-18T15:50:01.555Z,21.50
2019-02-18T15:52:31.193Z,21.60
2019-02-18T15:55:00.301Z,22.20
2019-02-18T15:57:29.148Z,22.50
2019-02-18T15:59:58.169Z,23.10
2019-02-18T16:02:27.163Z,22.80
2019-02-18T16:04:56.051Z,24.00
2019-02-18T16:07:25.576Z,24.10
2019-02-18T16:09:54.492Z,26.90
2019-02-18T16:12:23.480Z,30.00
2019-02-18T16:14:52.533Z,29.50
2019-02-18T16:17:21.449Z,31.40
2019-02-18T16:19:50.700Z,34.70
2019-02-18T16:22:20.136Z,36.80
2019-02-18T16:24:48.991Z,38.20
2019-02-18T16:27:17.891Z,40.20
2019-02-18T16:29:47.308Z,40.00
2019-02-18T16:32:16.304Z,42.30
2019-02-18T16:34:45.382Z,41.00
2019-02-18T16:37:14.888Z,43.00
2019-02-18T16:39:44.156Z,45.00
2019-02-18T16:42:13.159Z,47.30
2019-02-18T16:44:42.432Z,48.80
2019-02-18T16:47:11.359Z,47.90
2019-02-18T16:49:40.187Z,50.10
2019-02-18T16:52:09.516Z,50.20
2019-02-18T16:54:38.369Z,52.70
2019-02-18T16:57:07.355Z,53.20
2019-02-18T16:59:36.316Z,54.50
2019-02-18T17:02:05.316Z,54.30
2019-02-18T17:04:34.395Z,54.10
2019-02-18T17:07:04.656Z,54.50
2019-02-18T17:09:33.925Z,56.30
2019-02-18T17:12:02.775Z,57.70
2019-02-18T17:14:31.741Z,57.50
2019-02-18T17:17:00.763Z,59.30
2019-02-18T17:19:29.688Z,58.90
2019-02-18T17:21:59.116Z,59.60
2019-02-18T17:24:28.053Z,62.20
2019-02-18T17:26:56.879Z,60.50
2019-02-18T17:29:25.796Z,62.80
2019-02-18T17:31:54.648Z,62.10
2019-02-18T17:34:23.693Z,62.60
2019-02-18T17:36:52.639Z,63.60
2019-02-18T17:39:21.580Z,64.00
2019-02-18T17:41:50.509Z,65.70
2019-02-18T17:44:20.399Z,66.00
2019-02-18T17:46:49.484Z,67.10
2019-02-18T17:49:18.660Z,67.80
2019-02-18T17:51:47.630Z,69.00
2019-02-18T17:54:17.031Z,69.80
2019-02-18T17:56:45.897Z,69.30
2019-02-18T17:59:15.200Z,70.30
2019-02-18T18:01:44.393Z,70.50
2019-02-18T18:04:13.415Z,72.80
2019-02-18T18:06:42.432Z,73.00
2019-02-18T18:09:12.301Z,73.80
2019-02-18T18:11:41.279Z,75.00
2019-02-18T18:14:10.324Z,76.00
2019-02-18T18:16:39.312Z,75.20
2019-02-18T18:19:09.487Z,77.40
2019-02-18T18:21:38.715Z,75.70
2019-02-18T18:24:07.841Z,78.20
2019-02-18T18:26:36.688Z,78.90
2019-02-18T18:29:05.707Z,78.40
2019-02-18T18:31:34.847Z,78.00
2019-02-18T18:34:03.776Z,78.90
2019-02-18T18:36:32.690Z,80.00
2019-02-18T18:39:01.829Z,80.30
2019-02-18T18:41:30.932Z,81.40
2019-02-18T18:44:00.218Z,81.40
2019-02-18T18:46:29.148Z,81.00
2019-02-18T18:48:58.054Z,81.40
2019-02-18T18:51:27.403Z,81.70
2019-02-18T18:53:56.645Z,82.40
2019-02-18T18:56:25.568Z,83.30
2019-02-18T18:58:54.427Z,83.40
2019-02-18T19:01:23.860Z,84.10
2019-02-18T19:03:53.213Z,84.70
2019-02-18T19:06:22.212Z,84.60
2019-02-18T19:08:51.116Z,86.50
2019-02-18T19:11:20.148Z,85.90
2019-02-18T19:13:49.048Z,85.60
2019-02-18T19:16:17.960Z,85.80
2019-02-18T19:18:48.083Z,85.90
2019-02-18T19:21:16.947Z,86.30
2019-02-18T19:23:45.800Z,86.30
2019-02-18T19:26:14.756Z,85.80
2019-02-18T19:28:43.640Z,85.60
2019-02-18T19:31:14.084Z,86.80
2019-02-18T19:33:42.993Z,86.70
2019-02-18T19:36:12.512Z,86.90
2019-02-18T19:38:41.837Z,88.20
2019-02-18T19:41:10.745Z,88.20
2019-02-18T19:43:39.681Z,88.70
2019-02-18T19:46:08.535Z,89.20
2019-02-18T19:48:37.517Z,90.00
2019-02-18T19:51:06.874Z,90.00
2019-02-18T19:53:35.728Z,90.30
2019-02-18T19:56:04.755Z,90.60
2019-02-18T19:58:33.822Z,91.30
2019-02-18T20:01:02.911Z,91.20
2019-02-18T20:03:32.172Z,91.20
2019-02-18T20:06:01.361Z,91.00
2019-02-18T20:08:30.370Z,91.50
2019-02-18T20:10:59.200Z,91.60
2019-02-18T20:13:28.215Z,91.90
2019-02-18T20:15:57.152Z,91.30
2019-02-18T20:18:26.360Z,90.70
2019-02-18T20:20:55.559Z,88.90
2019-02-18T20:23:24.589Z,88.50
2019-02-18T20:25:54.008Z,89.00
2019-02-18T20:28:22.997Z,90.20
2019-02-18T20:30:51.844Z,89.40
2019-02-18T20:33:20.914Z,90.30
2019-02-18T20:35:50.204Z,90.80
2019-02-18T20:38:19.073Z,91.20
2019-02-18T20:40:47.980Z,91.60
2019-02-18T20:43:16.876Z,92.20
2019-02-18T20:45:45.833Z,92.10
2019-02-18T20:48:15.225Z,92.60
2019-02-18T20:50:44.633Z,92.50
2019-02-18T20:53:13.511Z,92.60
2019-02-18T20:55:42.528Z,92.40
2019-02-18T20:58:11.554Z,92.40
2019-02-18T21:00:40.496Z,92.50
2019-02-18T21:03:09.448Z,92.70
2019-02-18T21:05:38.739Z,92.90
2019-02-18T21:08:07.677Z,93.10
2019-02-18T21:10:36.760Z,93.30
2019-02-18T21:13:05.928Z,93.10
2019-02-18T21:15:34.932Z,93.10
2019-02-18T21:18:04.331Z,93.40
2019-02-18T21:20:33.586Z,93.40
2019-02-18T21:23:02.566Z,93.60
2019-02-18T21:25:31.556Z,93.20
2019-02-18T21:28:00.629Z,93.90
2019-02-18T21:30:29.577Z,93.90
2019-02-18T21:32:58.608Z,94.20
2019-02-18T21:35:27.954Z,93.80
2019-02-18T21:37:56.877Z,94.10
2019-02-18T21:40:26.311Z,93.90
2019-02-18T21:42:55.948Z,94.20
2019-02-18T21:45:24.896Z,94.50
2019-02-18T21:47:53.820Z,94.80
2019-02-18T21:50:23.115Z,95.20
2019-02-18T21:52:52.068Z,95.20
2019-02-18T21:55:21.081Z,95.30
2019-02-18T21:57:50.818Z,95.40
2019-02-18T22:00:21.275Z,95.60
2019-02-18T22:02:50.451Z,95.50
2019-02-18T22:05:20.353Z,95.60
2019-02-18T22:07:49.384Z,95.70
2019-02-18T22:10:18.365Z,95.70
2019-02-18T22:12:47.527Z,95.60
2019-02-18T22:15:16.678Z,95.60
2019-02-18T22:17:45.673Z,95.60
2019-02-18T22:20:15.539Z,95.80
2019-02-18T22:22:44.500Z,96.10
2019-02-18T22:25:13.528Z,96.20
2019-02-18T22:27:43.089Z,96.30
2019-02-18T22:30:12.238Z,96.40
2019-02-18T22:32:41.381Z,96.30
2019-02-18T22:35:10.517Z,96.40
2019-02-18T22:37:39.598Z,96.50
2019-02-18T22:40:08.725Z,96.40
2019-02-18T22:42:37.640Z,96.40
2019-02-18T22:45:06.689Z,96.50
2019-02-18T22:47:35.691Z,96.70
2019-02-18T22:50:04.746Z,96.70
2019-02-18T22:52:34.186Z,96.60
2019-02-18T22:55:03.555Z,96.70
2019-02-18T22:57:32.467Z,97.00
2019-02-18T23:00:01.454Z,97.30
2019-02-18T23:02:30.523Z,96.70
2019-02-18T23:04:59.466Z,96.40
2019-02-18T23:07:28.389Z,96.30
2019-02-18T23:09:57.608Z,96.60
2019-02-18T23:12:26.719Z,96.80
2019-02-18T23:14:55.667Z,96.50
2019-02-18T23:17:24.656Z,97.00
2019-02-18T23:19:53.557Z,97.30
2019-02-18T23:22:22.520Z,97.70
2019-02-18T23:24:52.269Z,97.10
2019-02-18T23:27:21.313Z,96.70
2019-02-18T23:29:50.360Z,96.60
2019-02-18T23:32:19.731Z,96.50
2019-02-18T23:34:48.649Z,96.80
2019-02-18T23:37:17.683Z,97.00
2019-02-18T23:39:47.209Z,96.90
2019-02-18T23:42:17.035Z,96.60
2019-02-18T23:44:45.981Z,96.10
2019-02-18T23:47:14.916Z,96.30
2019-02-18T23:49:43.920Z,96.40
2019-02-18T23:52:13.241Z,96.90
2019-02-18T23:54:42.148Z,97.00
2019-02-18T23:57:11.788Z,97.50
2019-02-18T23:59:40.900Z,97.30
